Ana Sayfa
METAR-TAF:

METAR-TAF

Havaalanları :

Ağrı Ahmed-i Hani Havalimanı

Ağrı, Türkiye

Enlem: 39-39-16N, Boylam: 43-01-38E, yükseklik: 1665 m

Güncel hava durumu gözlemi

Rapor saat 11:50 UTC de 1 saat ve 8 dakika önce yapıldı.
Rüzgar doğudan 22 kt
Sıcaklık 23°C
Nem 50%
Basınç 1016 hPa
Görüş mesafesi 10 km veya daha fazla
3000 ft yükseklikte az bulutlu, Kümülonimbus.
3500 ft yükseklikte parçalı bulutlu

METAR: LTCO 201150Z 10022KT 9999 FEW030CB SCT035 23/12 Q1016

Saat: 15:58 (12:58 UTC)

Tahmin

Rapor saat 10:40 UTC de 2 saat ve 18 dakika önce yapıldı.
Ayın 20'si saat 12 UTC'den ayın 20'si saat 21 UTC'ye kadar geçerli Tahmin
Rüzgar doğudan 15 kt
Görüş mesafesi 10 km veya daha fazla
3000 ft yükseklikte az bulutlu, Kümülonimbus.
3500 ft yükseklikte parçalı bulutlu
Geçici
ayın 20'si saat 12 UTC'den ayın 20'si saat 14 UTC'ye kadar
gök gürültülü fırtına, hafif yağmur

TAF: LTCO 201040Z 2012/2021 09015KT 9999 FEW030CB SCT035 TEMPO 2012/2014 -TSRA

4.000'den fazla havaalanı için hava durumu gözlemleri ve tahminleri (METAR ve TAF raporları).

Kullanılabilir istasyonlar harita üzerinde sarı ve kırmızı noktalarla gösterilir.

İstasyonun adını görmek için fareyi noktanın üzerinde gezdirin.

Sonrasında hava gözlem ve tahminlerini görmek için tıklayın.

Haritayı değiştirmek için: yaklaştırmak için siyah artı işaretli yeşil düğmeye ve uzaklaştırmak için de eksi işaretli düğmeye hızla tıklayın; bitişik haritalar için yeşil okları kullanın.


METAR-TAF: